Wetaskiwin, Canada
Current Conditions -  °F | °C
As of 12:00 AM on Sunday 26 Oct 2014 (Local Time) from CYEG Reporting Station
Overcast Overcast  
Wind Chill: 32°   Ceiling: 14000
Heat Index: 39°   Visibility: 15mi
Dew Point: 27°   Wind: 12mph
Humidity: 61%   Direction: 100°E
Pressure: 29.47"   Gusts: NA
Location:  52.97°N, 113.38°W
Report Text: CYEG 260600Z 10010KT 15SM FEW050 BKN140 OVC200 04/M03 A2947 RMK SC1AS4CI3 SLP998
Loading
Personal Weather Stations






























Interactive Weather Map
Tropical Storm Tracking
New forecast layout! Learn more

10-Day Weather Forecast

Advertisements
Track Severe Weather on mobile